»·PEaware :: WAT169 KSAN-KLAS

WAT169 :: KSAN-KLAS

FLIGHT INFORMATION

Flight Status: Arrived
Operator:
Walker Air Transport
More flights by this operator :: More flights under this callsign
Pilot: Marty P. (27464)
Aircraft: BOEING 737-800
(B738)
More flights by this aircraft type
Origin: KSAN San Diego Intl-Lindbergh
United States
Destination: KLAS McCarran Intl
United States
More flights between these airports :: More routes between these airports
Route: +PADRZ2 CHKNN SEBBY YELAH MISEN KEPEC6
File this flight plan on PilotEdge
Remarks:
Altitude:
(Current/Filed)
35,000ft
Speed:
(Current/Filed)
480kts
Departed: 09-Aug-20 02:39 PM
Arrived: 09-Aug-20 03:27 PM
Distance/Time
Traveled:
225nm/0:48
Distance/Time
To Go:
Arrived

Flight Plot

Page will automatically refresh every two minutes.

Flight plan parsing failed; only flown route is shown


Map Options




Map Legend


Flown Route
Filed Route
Departure Airport
Arrival Airport
Navaid (VOR, NDB)
Fix

Horizontal Profiles

Position Reports

Time Latitude Longitude Heading Altitude Ground
Speed
09-Aug-20 14:11 32.732872 -117.204642 111 28ft 0kts
09-Aug-20 14:12 32.732872 -117.204642 111 27ft 0kts
09-Aug-20 14:13 32.732872 -117.204642 111 27ft 0kts
09-Aug-20 14:14 32.732872 -117.204642 111 27ft 0kts
09-Aug-20 14:14 32.732872 -117.204642 111 27ft 0kts
09-Aug-20 14:16 32.732872 -117.204642 111 27ft 0kts
09-Aug-20 14:16 32.732872 -117.204642 111 27ft 0kts
09-Aug-20 14:17 32.732872 -117.204642 111 27ft 0kts
09-Aug-20 14:18 32.732872 -117.204642 111 27ft 0kts
09-Aug-20 14:20 32.732872 -117.204642 111 27ft 0kts
09-Aug-20 14:20 32.732872 -117.204642 111 27ft 0kts
09-Aug-20 14:21 32.732872 -117.204642 111 27ft 0kts
09-Aug-20 14:22 32.732872 -117.204642 111 27ft 0kts
09-Aug-20 14:23 32.732940 -117.204853 110 27ft 2kts
09-Aug-20 14:24 32.733137 -117.205463 111 27ft 1kts
09-Aug-20 14:25 32.733275 -117.206148 95 27ft 2kts
09-Aug-20 14:26 32.733379 -117.205768 51 27ft 4kts
09-Aug-20 14:27 32.734565 -117.205544 13 27ft 6kts
09-Aug-20 14:28 32.735468 -117.204634 51 27ft 0kts
09-Aug-20 14:29 32.735468 -117.204633 51 27ft 0kts
09-Aug-20 14:30 32.735862 -117.203604 96 27ft 9kts
09-Aug-20 14:31 32.734737 -117.198741 105 27ft 17kts
09-Aug-20 14:32 32.733276 -117.192732 106 27ft 19kts
09-Aug-20 14:33 32.731944 -117.187234 106 27ft 15kts
09-Aug-20 14:34 32.730953 -117.183121 105 27ft 10kts
09-Aug-20 14:35 32.730170 -117.179938 105 27ft 12kts
09-Aug-20 14:36 32.729507 -117.176907 74 27ft 2kts
09-Aug-20 14:37 32.729531 -117.176816 72 27ft 0kts
09-Aug-20 14:38 32.732503 -117.185352 286 28ft 130kts
09-Aug-20 14:39 32.749443 -117.242539 303 2174ft 217kts
09-Aug-20 14:40 32.792356 -117.307592 308 5181ft 264kts
09-Aug-20 14:41 32.838084 -117.378139 306 8583ft 278kts
09-Aug-20 14:42 32.886871 -117.453390 307 11122ft 315kts
09-Aug-20 14:43 32.948168 -117.546521 307 12553ft 379kts
09-Aug-20 14:44 33.014038 -117.646680 307 15223ft 393kts
09-Aug-20 14:45 33.086132 -117.747244 316 17649ft 407kts
09-Aug-20 14:46 33.171901 -117.836149 317 19883ft 419kts
09-Aug-20 14:47 33.262214 -117.927177 318 22144ft 432kts
09-Aug-20 14:48 33.353780 -118.017515 317 25145ft 420kts
09-Aug-20 14:49 33.441555 -118.103615 316 28254ft 396kts
09-Aug-20 14:50 33.523336 -118.183617 317 31070ft 369kts
09-Aug-20 14:51 33.607576 -118.249267 325 33186ft 357kts
09-Aug-20 14:52 33.692913 -118.296346 340 35039ft 346kts
09-Aug-20 14:53 33.791978 -118.267958 39 35039ft 411kts
09-Aug-20 14:54 33.865312 -118.156493 53 35033ft 445kts
09-Aug-20 14:55 33.940652 -118.030182 53 35018ft 482kts
09-Aug-20 14:56 34.021295 -117.894033 53 35029ft 515kts
09-Aug-20 14:57 34.106666 -117.753873 49 35039ft 518kts
09-Aug-20 14:58 34.197827 -117.619453 49 35035ft 516kts
09-Aug-20 14:59 34.288851 -117.485888 49 35046ft 516kts
09-Aug-20 15:00 34.379656 -117.352384 49 35078ft 514kts
09-Aug-20 15:01 34.470336 -117.218756 49 35070ft 514kts
09-Aug-20 15:02 34.560350 -117.085536 49 35080ft 509kts
09-Aug-20 15:03 34.649883 -116.952501 49 35040ft 509kts
09-Aug-20 15:04 34.738519 -116.820291 49 33249ft 507kts
09-Aug-20 15:05 34.827688 -116.688364 46 30089ft 506kts
09-Aug-20 15:06 34.929718 -116.573021 37 28018ft 490kts
09-Aug-20 15:07 35.035035 -116.469880 37 25647ft 486kts
09-Aug-20 15:08 35.132563 -116.364782 44 24039ft 446kts
09-Aug-20 15:09 35.219866 -116.256476 45 23139ft 446kts
09-Aug-20 15:10 35.304175 -116.150966 45 20703ft 425kts
09-Aug-20 15:11 35.384194 -116.050323 46 18958ft 399kts
09-Aug-20 15:12 35.463382 -115.950206 46 17889ft 394kts
09-Aug-20 15:13 35.541948 -115.851227 45 15344ft 401kts
09-Aug-20 15:14 35.616820 -115.757688 46 13928ft 359kts
09-Aug-20 15:15 35.680555 -115.675995 53 12700ft 308kts
09-Aug-20 15:16 35.723366 -115.587608 61 10508ft 297kts
09-Aug-20 15:17 35.763195 -115.500451 61 8343ft 290kts
09-Aug-20 15:18 35.807452 -115.420514 34 8051ft 275kts
09-Aug-20 15:19 35.872814 -115.374483 13 7440ft 271kts
09-Aug-20 15:20 35.944074 -115.362886 6 7041ft 238kts
09-Aug-20 15:21 36.010108 -115.353453 6 6254ft 248kts
09-Aug-20 15:22 36.066439 -115.325030 60 5140ft 201kts
09-Aug-20 15:23 36.073124 -115.261940 93 4446ft 171kts
09-Aug-20 15:24 36.073446 -115.206944 89 2955ft 158kts
09-Aug-20 15:25 36.073609 -115.153713 89 2192ft 131kts
09-Aug-20 15:26 36.075569 -115.137938 2 2191ft 15kts
09-Aug-20 15:27 36.078231 -115.137595 84 2191ft 3kts
09-Aug-20 15:28 36.078845 -115.135351 1 2191ft 10kts
09-Aug-20 15:29 36.079857 -115.135300 0 2191ft 0kts

Navigation Log

Ident Type
Flight plan parsing failed, navigation log unavailable